Hubby Won — WDG5913 — position and weather

sailwx.info

Track history (hours):
 
Tides and Currents Weather Stations Pressure Air Temp Water Temp Dewpoint Dewpoint Depression Visibility Wind Speed Wind Dir Waves Ship Positions

Hubby Won

Owner: Olson, Mel, Freeland, WA. More information available from US FCC via Universal Licensing System and Coast Guard Vessel Documentation Center.

Last reported at 2017-Oct-01 15:35 UTC. Time now 2017-Nov-21 17:44 UTC.
Position N 48°30' W 122°43'.
Warning: this ship's position is 51 days out of date.

Length 14 m.

Type: Pleasure craft. MMSI: 367551610.

Date/timePositionNaut miles runAvg speedWind from/ knotsBaromVisibWave heightAir tempDewpointWater temp
2017-Oct-01 15:35N 48°30' W 122°43'  
2017-Sep-28 20:12N 48°31' W 122°43'210.1
2017-Sep-28 20:00N 48°31' W 122°46'5 9.2
2017-Sep-28 19:29N 48°34' W 122°52'12 0.5
2017-Sep-27 21:31N 48°37' W 123°09'0 0.0
2017-Sep-27 21:28N 48°37' W 123°09'11 8.4
2017-Sep-27 20:08N 48°46' W 123°19'210.5
2017-Sep-27 19:59N 48°47' W 123°20'5 9.8
2017-Sep-27 19:30N 48°51' W 123°24'5 9.7
2017-Sep-27 19:00N 48°55' W 123°29'6 9.9
2017-Sep-27 18:25N 48°59' W 123°35'510.0
2017-Sep-27 17:56N 49°02' W 123°40'11 9.7
2017-Sep-27 16:48N 49°10' W 123°53'2 0.1
2017-Sep-26 22:45N 49°10' W 123°56'0 0.0
2017-Sep-26 21:50N 49°10' W 123°56'2 4.8
2017-Sep-26 21:30N 49°12' W 123°57'4 7.5
2017-Sep-26 21:00N 49°15' W 123°59'5 9.3
2017-Sep-26 20:30N 49°18' W 124°05'5 9.4
2017-Sep-26 20:00N 49°20' W 124°11'5 9.2
2017-Sep-26 19:25N 49°22' W 124°19'4 9.4
2017-Sep-26 18:58N 49°24' W 124°24'4 9.5
2017-Sep-26 18:30N 49°26' W 124°31'17 8.7
2017-Sep-26 16:32N 49°36' W 124°53'1 9.4
2017-Sep-26 16:28N 49°36' W 124°53'4 0.2
2017-Sep-25 18:43N 49°40' W 124°55'3 6.1
2017-Sep-25 18:18N 49°39' W 124°52'3 9.4
2017-Sep-25 17:58N 49°42' W 124°50'510.3
2017-Sep-25 17:30N 49°46' W 124°54'510.0
2017-Sep-25 17:00N 49°50' W 124°59'5 9.8
2017-Sep-25 16:28N 49°54' W 125°04'6 9.1
2017-Sep-25 15:50N 49°58' W 125°10'410.6
2017-Sep-25 15:30N 50°01' W 125°13'2 0.1
2017-Sep-23 20:05N 50°04' W 125°14'0 0.5
2017-Sep-23 20:00N 50°04' W 125°14'26 0.6
2017-Sep-22 01:15N 49°40' W 124°56'2 0.8
2017-Sep-21 22:37N 49°38' W 124°54'310.0
2017-Sep-21 22:21N 49°36' W 124°53'810.1
2017-Sep-21 21:32N 49°29' W 124°45'2 9.7
2017-Sep-21 21:18N 49°28' W 124°42'510.0
2017-Sep-21 20:49N 49°26' W 124°35'3 9.9
2017-Sep-21 20:29N 49°25' W 124°30'5 9.8
2017-Sep-21 19:59N 49°23' W 124°23'6 9.6
2017-Sep-21 19:24N 49°21' W 124°16'4 9.5
2017-Sep-21 19:00N 49°20' W 124°10'5 9.5
2017-Sep-21 18:30N 49°17' W 124°04'5 9.5
2017-Sep-21 18:00N 49°15' W 123°58'4 6.8
2017-Sep-21 17:26N 49°11' W 123°56'  
Track history (hours):
 
Tides and Currents Weather Stations Pressure Air Temp Water Temp Dewpoint Dewpoint Depression Visibility Wind Speed Wind Dir Waves Ship Positions

Hubby Won

Owner: Olson, Mel, Freeland, WA. More information available from US FCC via Universal Licensing System and Coast Guard Vessel Documentation Center.

Last reported at 2017-Oct-01 15:35 UTC. Time now 2017-Nov-21 17:44 UTC.
Position N 48°30' W 122°43'.
Warning: this ship's position is 51 days out of date.

Length 14 m.

Type: Pleasure craft. MMSI: 367551610.

Date/timePositionNaut miles runAvg speedWind from/ knotsBaromVisibWave heightAir tempDewpointWater temp
2017-Oct-01 15:35N 48°30' W 122°43'  
2017-Sep-28 20:12N 48°31' W 122°43'210.1
2017-Sep-28 20:00N 48°31' W 122°46'5 9.2
2017-Sep-28 19:29N 48°34' W 122°52'12 0.5
2017-Sep-27 21:31N 48°37' W 123°09'0 0.0
2017-Sep-27 21:28N 48°37' W 123°09'11 8.4
2017-Sep-27 20:08N 48°46' W 123°19'210.5
2017-Sep-27 19:59N 48°47' W 123°20'5 9.8
2017-Sep-27 19:30N 48°51' W 123°24'5 9.7
2017-Sep-27 19:00N 48°55' W 123°29'6 9.9
2017-Sep-27 18:25N 48°59' W 123°35'510.0
2017-Sep-27 17:56N 49°02' W 123°40'11 9.7
2017-Sep-27 16:48N 49°10' W 123°53'2 0.1
2017-Sep-26 22:45N 49°10' W 123°56'0 0.0
2017-Sep-26 21:50N 49°10' W 123°56'2 4.8
2017-Sep-26 21:30N 49°12' W 123°57'4 7.5
2017-Sep-26 21:00N 49°15' W 123°59'5 9.3
2017-Sep-26 20:30N 49°18' W 124°05'5 9.4
2017-Sep-26 20:00N 49°20' W 124°11'5 9.2
2017-Sep-26 19:25N 49°22' W 124°19'4 9.4
2017-Sep-26 18:58N 49°24' W 124°24'4 9.5
2017-Sep-26 18:30N 49°26' W 124°31'17 8.7
2017-Sep-26 16:32N 49°36' W 124°53'1 9.4
2017-Sep-26 16:28N 49°36' W 124°53'4 0.2
2017-Sep-25 18:43N 49°40' W 124°55'3 6.1
2017-Sep-25 18:18N 49°39' W 124°52'3 9.4
2017-Sep-25 17:58N 49°42' W 124°50'510.3
2017-Sep-25 17:30N 49°46' W 124°54'510.0
2017-Sep-25 17:00N 49°50' W 124°59'5 9.8
2017-Sep-25 16:28N 49°54' W 125°04'6 9.1
2017-Sep-25 15:50N 49°58' W 125°10'410.6
2017-Sep-25 15:30N 50°01' W 125°13'2 0.1
2017-Sep-23 20:05N 50°04' W 125°14'0 0.5
2017-Sep-23 20:00N 50°04' W 125°14'26 0.6
2017-Sep-22 01:15N 49°40' W 124°56'2 0.8
2017-Sep-21 22:37N 49°38' W 124°54'310.0
2017-Sep-21 22:21N 49°36' W 124°53'810.1
2017-Sep-21 21:32N 49°29' W 124°45'2 9.7
2017-Sep-21 21:18N 49°28' W 124°42'510.0
2017-Sep-21 20:49N 49°26' W 124°35'3 9.9
2017-Sep-21 20:29N 49°25' W 124°30'5 9.8
2017-Sep-21 19:59N 49°23' W 124°23'6 9.6
2017-Sep-21 19:24N 49°21' W 124°16'4 9.5
2017-Sep-21 19:00N 49°20' W 124°10'5 9.5
2017-Sep-21 18:30N 49°17' W 124°04'5 9.5
2017-Sep-21 18:00N 49°15' W 123°58'4 6.8
2017-Sep-21 17:26N 49°11' W 123°56'  

Dump ship's entire track history